Terminal Aerodrome Forecast
Issued by NWS

Home | Current Version | Previous Version | Text Only | Print | Product List | Glossary Off
Versions: 1 2 3 4 5 6 7 8 9 10 11 12 13 14 15 16 17 18

000
FTUS43 KMPX 140906 AAA
TAFRWF
TAF AMD
KRWF 140906Z 1409/1506 33003KT P6SM OVC015
     FM141800 32009KT P6SM OVC020
     FM150200 31008KT P6SM BKN035=

USA.gov is the U.S. government's official web portal to all federal, state and local government web resources and services.